Time;durP1;ratioP1;P1;durP2;ratioP2;P2;SDS_P1;SDS_P2;PMS_P1;PMS_P2;Temp;Humidity;BMP_temperature;BMP_pressure;BME280_temperature;BME280_humidity;BME280_pressure;Samples;Min_cycle;Max_cycle;Signal;HPM_P1;HPM_P2
2023/10/02 00:01:11;;;;;;;4.55;2.10;;;;;;;22.39;42.69;101057.19;5113840;28;20055;-64
2023/10/02 00:03:41;;;;;;;4.30;1.90;;;;;;;22.38;42.49;101055.47;5113913;28;20549;-64
2023/10/02 00:06:11;;;;;;;4.50;2.13;;;;;;;22.37;42.56;101061.91;5113755;28;20488;-63
2023/10/02 00:08:43;;;;;;;4.93;2.35;;;;;;;22.36;42.82;101054.75;5113875;28;20054;-63
2023/10/02 00:14:22;;;;;;;4.65;2.17;;;;;;;22.33;42.88;101058.66;5093447;28;20044;-64
2023/10/02 00:17:03;;;;;;;3.40;1.75;;;;;;;22.31;42.48;101054.38;5093404;28;20060;-64
2023/10/02 00:19:39;;;;;;;4.25;2.17;;;;;;;22.32;42.85;101056.09;5093145;28;20485;-64
2023/10/02 00:22:09;;;;;;;4.07;2.10;;;;;;;22.31;42.88;101054.38;5093350;28;20105;-64
2023/10/02 00:24:40;;;;;;;3.67;1.90;;;;;;;22.30;42.61;101052.66;5093351;28;20048;-64
2023/10/02 00:27:09;;;;;;;5.40;2.40;;;;;;;22.28;42.82;101045.50;5093042;28;20044;-64
2023/10/02 00:29:51;;;;;;;4.28;2.05;;;;;;;22.26;42.71;101035.78;5093166;28;20066;-63
2023/10/02 00:32:20;;;;;;;4.53;1.90;;;;;;;22.26;43.05;101042.06;5093215;28;20052;-64
2023/10/02 00:34:52;;;;;;;3.92;2.00;;;;;;;22.25;42.50;101044.94;5093170;28;20392;-64
2023/10/02 00:37:21;;;;;;;5.03;2.30;;;;;;;22.25;42.92;101036.78;5092801;28;20052;-64
2023/10/02 00:39:52;;;;;;;5.30;2.38;;;;;;;22.21;42.66;101036.25;5092967;28;20044;-64
2023/10/02 00:42:28;;;;;;;5.40;2.10;;;;;;;22.23;42.80;101036.09;5092791;28;20055;-64
2023/10/02 00:44:57;;;;;;;3.33;1.88;;;;;;;22.21;42.85;101030.81;5093113;28;20048;-66
2023/10/02 00:50:20;;;;;;;5.38;2.25;;;;;;;22.19;42.66;101040.09;5089445;28;20098;-65
2023/10/02 00:52:52;;;;;;;4.70;2.08;;;;;;;22.18;42.95;101038.38;5092574;28;20489;-65
2023/10/02 00:55:24;;;;;;;4.32;2.05;;;;;;;22.17;43.13;101032.09;5092902;28;20062;-65
2023/10/02 00:57:54;;;;;;;4.68;2.30;;;;;;;22.17;43.01;101042.97;5092544;28;20048;-65
2023/10/02 01:00:35;;;;;;;4.13;2.03;;;;;;;22.16;42.76;101041.25;5092592;28;20048;-65
2023/10/02 01:03:08;;;;;;;4.15;2.00;;;;;;;22.14;42.82;101045.97;5092512;28;20060;-65
2023/10/02 01:05:47;;;;;;;3.72;2.03;;;;;;;22.14;42.85;101045.97;5092381;28;20412;-63
2023/10/02 01:08:42;;;;;;;4.88;2.50;;;;;;;22.13;42.71;101052.44;5092458;28;20048;-63
2023/10/02 01:11:14;;;;;;;3.88;1.90;;;;;;;22.11;42.94;101054.44;5092218;28;20052;-65
2023/10/02 01:13:44;;;;;;;4.07;2.10;;;;;;;22.12;43.06;101050.72;5092145;28;20050;-65
2023/10/02 01:16:17;;;;;;;4.32;2.17;;;;;;;22.11;42.99;101049.00;5092161;28;20125;-65
2023/10/02 01:18:48;;;;;;;4.55;2.22;;;;;;;22.10;42.79;101047.28;5092298;28;20051;-65
2023/10/02 01:21:24;;;;;;;3.67;1.77;;;;;;;22.09;42.83;101061.84;5092269;28;20078;-65
2023/10/02 01:24:10;;;;;;;4.03;2.25;;;;;;;22.07;43.13;101053.00;5092202;28;20054;-65
2023/10/02 01:26:41;;;;;;;4.20;2.25;;;;;;;22.06;43.34;101045.81;5092017;28;20055;-64
2023/10/02 01:29:13;;;;;;;4.78;2.20;;;;;;;22.05;43.01;101048.69;5092165;28;20048;-65
2023/10/02 01:31:44;;;;;;;3.90;1.85;;;;;;;22.04;42.91;101046.97;5092076;28;20105;-65
2023/10/02 01:34:33;;;;;;;3.72;1.85;;;;;;;22.03;42.90;101051.56;5092033;28;20390;-65
2023/10/02 01:37:32;;;;;;;3.72;2.22;;;;;;;22.02;43.05;101055.28;5092063;28;20044;-65
2023/10/02 01:40:28;;;;;;;3.80;2.20;;;;;;;22.01;43.04;101059.00;5091866;28;20420;-65
2023/10/02 01:42:43;;;;;;;4.25;2.20;;;;;;;22.00;42.90;101062.69;5091724;28;20450;-65
2023/10/02 01:45:12;;;;;;;4.20;2.13;;;;;;;21.98;42.92;101057.41;5091728;28;20097;-65
2023/10/02 01:47:41;;;;;;;3.40;1.90;;;;;;;22.00;43.00;101062.69;5091862;28;20139;-65
2023/10/02 01:50:10;;;;;;;3.97;2.00;;;;;;;21.98;42.87;101056.56;5091959;28;20048;-64
2023/10/02 01:52:41;;;;;;;3.47;1.77;;;;;;;21.97;42.76;101060.28;5091643;28;20126;-65
2023/10/02 01:55:29;;;;;;;4.60;2.30;;;;;;;21.96;42.95;101061.28;5091992;28;20075;-65
2023/10/02 01:58:16;;;;;;;4.90;2.10;;;;;;;21.96;42.95;101066.72;5091638;28;20052;-64
2023/10/02 02:00:46;;;;;;;4.20;2.10;;;;;;;21.94;42.98;101066.88;5091761;28;20048;-64
2023/10/02 02:03:17;;;;;;;4.85;2.15;;;;;;;21.92;42.93;101066.16;5091715;28;20052;-65
2023/10/02 02:05:46;;;;;;;4.10;2.13;;;;;;;21.91;43.10;101052.75;5091481;28;20511;-66
2023/10/02 02:08:24;;;;;;;5.30;2.20;;;;;;;21.91;43.04;101056.31;5091252;28;20485;-64
2023/10/02 02:11:14;;;;;;;4.00;2.10;;;;;;;21.90;43.11;101054.56;5092892;28;20080;-64
2023/10/02 02:13:46;;;;;;;5.68;2.13;;;;;;;21.88;43.16;101058.44;5095851;28;20458;-64
2023/10/02 02:16:17;;;;;;;4.82;2.00;;;;;;;21.89;42.95;101052.00;5095733;28;20048;-65
2023/10/02 02:18:48;;;;;;;4.40;2.03;;;;;;;21.88;43.13;101059.31;5095492;28;20055;-65
2023/10/02 02:21:18;;;;;;;4.45;2.10;;;;;;;21.86;42.84;101055.03;5095781;28;20097;-65
2023/10/02 02:23:48;;;;;;;3.55;1.95;;;;;;;21.85;43.15;101061.47;5095774;28;20040;-65
2023/10/02 02:26:21;;;;;;;3.88;2.08;;;;;;;21.86;43.08;101065.88;5095506;28;20076;-65
2023/10/02 02:28:51;;;;;;;4.65;2.35;;;;;;;21.84;42.81;101062.47;5095414;28;20051;-65
2023/10/02 02:31:32;;;;;;;4.22;2.05;;;;;;;21.83;43.13;101066.19;5095284;28;20101;-64
2023/10/02 02:34:04;;;;;;;5.30;2.08;;;;;;;21.82;42.98;101075.34;5095553;28;20052;-65
2023/10/02 02:36:35;;;;;;;4.45;1.98;;;;;;;21.81;43.06;101066.34;5095290;28;20135;-65
2023/10/02 02:39:16;;;;;;;4.05;2.10;;;;;;;21.81;42.86;101062.75;5095365;28;20416;-64
2023/10/02 02:42:08;;;;;;;5.68;2.17;;;;;;;21.80;42.81;101070.03;5095210;28;20054;-63
2023/10/02 02:44:43;;;;;;;4.55;2.08;;;;;;;21.79;42.88;101078.31;5095235;28;20412;-63
2023/10/02 02:47:16;;;;;;;4.18;2.15;;;;;;;21.78;42.99;101071.19;5094955;28;20059;-64
2023/10/02 02:49:48;;;;;;;3.53;1.98;;;;;;;21.76;42.83;101082.19;5094945;28;20508;-65
2023/10/02 02:52:24;;;;;;;5.45;2.40;;;;;;;21.75;42.78;101085.06;5102478;28;20051;-64
2023/10/02 02:54:59;;;;;;;4.13;2.05;;;;;;;21.74;43.06;101083.34;5095134;28;20052;-65
2023/10/02 02:57:31;;;;;;;4.38;2.28;;;;;;;21.74;42.84;101083.34;5094859;28;20097;-65
2023/10/02 03:02:52;;;;;;;4.55;2.25;;;;;;;21.71;42.92;101092.63;5094517;28;20048;-64
2023/10/02 03:05:23;;;;;;;5.05;2.25;;;;;;;21.70;42.74;101089.03;5094848;28;20097;-64
2023/10/02 03:07:54;;;;;;;4.35;2.17;;;;;;;21.69;42.93;101091.91;5094900;28;20044;-65
2023/10/02 03:10:25;;;;;;;5.95;2.15;;;;;;;21.68;43.07;101090.19;5094596;28;20056;-65
2023/10/02 03:12:55;;;;;;;4.00;1.98;;;;;;;21.67;42.97;101100.19;5094257;28;20052;-65
2023/10/02 03:15:45;;;;;;;5.38;2.28;;;;;;;21.65;42.91;101096.78;5094585;28;20056;-65
2023/10/02 03:18:30;;;;;;;4.93;2.30;;;;;;;21.65;43.10;101098.63;5094398;28;20748;-65
2023/10/02 03:21:05;;;;;;;5.18;2.40;;;;;;;21.64;42.84;101100.50;5094228;28;20052;-65
2023/10/02 03:23:34;;;;;;;5.35;2.65;;;;;;;21.64;43.23;101099.66;5094315;28;20044;-65
2023/10/02 03:26:07;;;;;;;4.18;2.10;;;;;;;21.62;42.91;101097.06;5094535;28;20386;-65
2023/10/02 03:28:39;;;;;;;4.43;2.10;;;;;;;21.61;42.81;101106.19;5094326;28;20162;-65
2023/10/02 03:31:16;;;;;;;4.57;1.92;;;;;;;21.60;42.75;101104.47;5094230;28;20131;-64
2023/10/02 03:33:45;;;;;;;4.97;2.25;;;;;;;21.58;43.00;101098.34;5094237;28;20113;-65
2023/10/02 03:36:20;;;;;;;4.30;2.13;;;;;;;21.59;42.84;101099.19;5093979;28;20048;-65
2023/10/02 03:38:51;;;;;;;5.40;2.35;;;;;;;21.58;42.94;101101.06;5094321;28;20437;-65
2023/10/02 03:41:19;;;;;;;5.13;2.22;;;;;;;21.58;42.92;101101.06;5094016;28;20055;-65
2023/10/02 03:43:49;;;;;;;5.03;2.60;;;;;;;21.56;43.07;101103.06;5094066;28;20050;-65
2023/10/02 03:46:22;;;;;;;4.72;2.40;;;;;;;21.55;43.22;101095.06;5093781;28;20055;-64
2023/10/02 03:48:58;;;;;;;4.47;2.20;;;;;;;21.53;43.08;101100.66;5093779;28;20602;-65
2023/10/02 03:51:40;;;;;;;3.78;2.30;;;;;;;21.54;43.11;101107.78;5093881;28;20048;-64
2023/10/02 03:54:21;;;;;;;5.70;2.50;;;;;;;21.53;43.11;101100.66;5093734;28;20087;-65
2023/10/02 03:56:50;;;;;;;5.45;2.55;;;;;;;21.52;43.26;101101.66;5093602;28;20123;-64
2023/10/02 03:59:22;;;;;;;3.75;2.20;;;;;;;21.51;43.01;101108.06;5105863;28;20496;-65
2023/10/02 04:01:51;;;;;;;4.15;2.30;;;;;;;21.50;43.24;101111.75;5114099;28;20051;-65
2023/10/02 04:04:23;;;;;;;4.78;2.20;;;;;;;21.49;43.17;101107.34;5113852;28;20050;-65
2023/10/02 04:06:54;;;;;;;4.55;2.22;;;;;;;21.47;43.01;101109.34;5096512;28;20076;-64
2023/10/02 04:09:24;;;;;;;4.47;2.33;;;;;;;21.47;43.21;101109.34;5113565;28;20142;-65
2023/10/02 04:11:54;;;;;;;4.95;2.28;;;;;;;21.46;43.19;101110.34;5113667;28;20142;-64
2023/10/02 04:14:32;;;;;;;4.63;2.30;;;;;;;21.44;42.94;101104.22;5113888;28;20039;-65
2023/10/02 04:17:13;;;;;;;5.05;2.53;;;;;;;21.44;43.07;101104.22;5113671;28;20057;-64
2023/10/02 04:19:48;;;;;;;4.63;2.42;;;;;;;21.44;43.17;101109.63;5113402;28;20404;-64
2023/10/02 04:22:22;;;;;;;5.32;2.60;;;;;;;21.42;43.06;101111.59;5113712;28;20052;-64
2023/10/02 04:24:54;;;;;;;4.13;2.20;;;;;;;21.41;43.25;101110.75;5113706;28;20046;-65
2023/10/02 04:27:25;;;;;;;3.97;2.38;;;;;;;21.41;43.40;101112.63;5113544;28;20100;-64
2023/10/02 04:32:49;;;;;;;4.45;2.38;;;;;;;21.38;43.44;101115.63;5112862;28;20176;-65
2023/10/02 04:38:14;;;;;;;4.85;2.50;;;;;;;21.38;43.43;101115.63;5076437;28;20092;-65
2023/10/02 04:40:49;;;;;;;4.40;2.00;;;;;;;21.36;43.35;101123.06;5113044;28;20050;-64
2023/10/02 04:43:23;;;;;;;6.15;2.47;;;;;;;21.35;43.17;101121.34;5113240;28;20043;-64
2023/10/02 04:46:01;;;;;;;5.53;2.70;;;;;;;21.34;43.21;101119.63;5113207;28;20047;-64
2023/10/02 04:48:39;;;;;;;5.10;2.55;;;;;;;21.34;43.24;101122.34;5112974;28;20046;-64
2023/10/02 04:51:08;;;;;;;4.75;2.45;;;;;;;21.33;43.39;101123.34;5112894;28;20159;-64
2023/10/02 04:53:42;;;;;;;4.90;2.25;;;;;;;21.32;43.00;101130.59;5112685;28;20039;-64
2023/10/02 04:56:21;;;;;;;4.18;2.38;;;;;;;21.32;43.36;101127.03;5112841;28;20129;-64
2023/10/02 04:58:51;;;;;;;4.88;2.58;;;;;;;21.31;42.98;101128.03;5112456;28;20047;-66
2023/10/02 05:01:28;;;;;;;6.88;2.78;;;;;;;21.30;43.36;101140.75;5112571;28;20051;-64
2023/10/02 05:04:02;;;;;;;6.10;2.45;;;;;;;21.28;43.32;101137.31;5112426;28;20048;-63
2023/10/02 05:06:44;;;;;;;5.15;2.63;;;;;;;21.29;43.37;101146.31;5112863;28;20048;-63
2023/10/02 05:09:38;;;;;;;4.82;2.70;;;;;;;21.28;43.27;101150.03;5112463;28;20058;-64
2023/10/02 05:12:06;;;;;;;4.85;2.25;;;;;;;21.28;43.26;101155.44;5112108;28;20084;-64
2023/10/02 05:14:47;;;;;;;5.50;2.47;;;;;;;21.28;43.39;101158.16;5112675;28;20446;-63
2023/10/02 05:17:41;;;;;;;6.50;2.67;;;;;;;21.27;43.64;101156.44;5112152;28;20434;-64
2023/10/02 05:20:13;;;;;;;5.03;2.47;;;;;;;21.27;43.71;101156.44;5112074;28;20078;-63
2023/10/02 05:22:43;;;;;;;5.82;2.47;;;;;;;21.26;43.43;101165.56;5111805;28;20280;-63
2023/10/02 05:25:18;;;;;;;4.50;2.40;;;;;;;21.26;43.53;101165.56;5111916;28;20499;-64
2023/10/02 05:27:47;;;;;;;3.80;2.33;;;;;;;21.26;43.77;101168.28;5111802;28;20051;-64
2023/10/02 05:30:18;;;;;;;6.65;3.15;;;;;;;21.24;43.39;101173.84;5111992;28;20074;-64
2023/10/02 05:32:48;;;;;;;5.30;2.92;;;;;;;21.23;43.68;101172.13;5111835;28;20039;-65
2023/10/02 05:35:23;;;;;;;5.28;2.45;;;;;;;21.25;43.70;101180.13;5111314;28;20067;-64
2023/10/02 05:37:54;;;;;;;5.35;2.72;;;;;;;21.25;43.54;101180.13;5111591;28;20044;-64
2023/10/02 05:43:17;;;;;;;5.40;2.83;;;;;;;21.24;43.47;101189.25;5091977;28;20073;-64
2023/10/02 05:45:50;;;;;;;4.50;2.50;;;;;;;21.24;43.60;101190.13;5110679;28;20118;-63
2023/10/02 05:48:37;;;;;;;5.15;2.83;;;;;;;21.23;43.62;101188.41;5111637;28;20101;-64
2023/10/02 05:51:09;;;;;;;5.57;3.03;;;;;;;21.24;43.93;101190.13;5111590;28;20633;-65
2023/10/02 05:53:53;;;;;;;5.57;2.67;;;;;;;21.22;43.77;101192.09;5111720;28;20081;-63
2023/10/02 05:56:21;;;;;;;5.00;2.78;;;;;;;21.22;43.86;101189.38;5112061;28;20428;-64
2023/10/02 05:58:49;;;;;;;6.40;2.67;;;;;;;21.23;43.51;101206.50;5112025;28;20048;-65
2023/10/02 06:01:23;;;;;;;6.97;2.90;;;;;;;21.23;43.50;101198.38;5111660;28;20117;-64
2023/10/02 06:04:00;;;;;;;5.93;2.78;;;;;;;21.22;43.86;101202.09;5111892;28;20062;-63
2023/10/02 06:06:35;;;;;;;5.63;2.63;;;;;;;21.22;44.01;101205.66;5111441;28;20083;-64
2023/10/02 06:09:12;;;;;;;6.95;3.35;;;;;;;21.22;43.98;101199.38;5111919;28;20140;-65
2023/10/02 06:14:24;;;;;;;5.70;2.50;;;;;;;21.22;43.97;101210.22;5111201;28;20075;-64
2023/10/02 06:16:53;;;;;;;4.97;2.75;;;;;;;21.21;44.12;101212.09;5111474;28;20043;-64
2023/10/02 06:19:23;;;;;;;5.43;2.75;;;;;;;21.21;44.10;101220.22;5111244;28;20047;-65
2023/10/02 06:22:06;;;;;;;6.05;2.80;;;;;;;21.21;44.09;101222.06;5111472;28;20424;-64
2023/10/02 06:24:34;;;;;;;5.95;3.30;;;;;;;21.21;44.15;101211.22;5111716;28;20051;-64
2023/10/02 06:27:05;;;;;;;6.00;2.50;;;;;;;21.21;44.10;101211.22;5111557;28;20108;-64
2023/10/02 06:29:36;;;;;;;7.47;3.10;;;;;;;21.22;44.36;101212.94;5111511;28;20089;-64
2023/10/02 06:32:09;;;;;;;7.60;3.33;;;;;;;21.21;44.33;101212.09;5111693;28;20053;-63
2023/10/02 06:34:43;;;;;;;5.72;2.85;;;;;;;21.21;44.16;101211.22;5111567;28;20131;-64
2023/10/02 06:37:13;;;;;;;5.03;2.80;;;;;;;21.21;44.39;101216.66;5111391;28;20130;-64
2023/10/02 06:39:43;;;;;;;5.68;2.72;;;;;;;21.21;44.37;101222.94;5111305;28;20044;-64
2023/10/02 06:42:12;;;;;;;5.65;2.85;;;;;;;21.22;44.28;101223.78;5111360;28;20052;-64
2023/10/02 06:44:52;;;;;;;6.05;2.60;;;;;;;21.23;44.11;101222.78;5111191;28;20047;-65
2023/10/02 06:47:23;;;;;;;6.03;3.00;;;;;;;21.22;44.33;101219.22;5111338;28;20748;-65
2023/10/02 06:49:53;;;;;;;5.25;2.67;;;;;;;21.21;44.39;101219.38;5111397;28;20131;-61
2023/10/02 06:52:24;;;;;;;5.93;2.75;;;;;;;21.22;44.49;101221.06;5111715;28;20043;-63
2023/10/02 06:54:56;;;;;;;5.15;2.70;;;;;;;21.22;44.43;101218.38;5111550;28;20051;-63
2023/10/02 06:57:25;;;;;;;4.13;2.50;;;;;;;21.22;44.46;101221.06;5113813;28;20209;-62
2023/10/02 06:59:54;;;;;;;6.47;3.08;;;;;;;21.22;44.64;101219.22;5115075;28;20121;-62
2023/10/02 07:02:24;;;;;;;4.90;2.72;;;;;;;21.23;44.23;101225.50;5115091;28;20062;-63
2023/10/02 07:04:55;;;;;;;7.25;3.10;;;;;;;21.24;44.71;101227.25;5114838;28;20055;-63
2023/10/02 07:07:28;;;;;;;6.43;2.35;;;;;;;21.23;44.62;101234.53;5114630;28;20071;-64
2023/10/02 07:10:07;;;;;;;6.53;2.83;;;;;;;21.24;44.24;101230.81;5114595;28;20134;-63
2023/10/02 07:12:39;;;;;;;6.28;2.70;;;;;;;21.23;44.62;101233.66;5093175;28;20090;-63
2023/10/02 07:15:13;;;;;;;6.60;2.63;;;;;;;21.24;44.48;101232.69;5093511;28;20171;-63
2023/10/02 07:17:48;;;;;;;4.53;2.70;;;;;;;21.25;44.69;101234.38;5093009;28;20572;-63
2023/10/02 07:20:20;;;;;;;4.70;2.50;;;;;;;21.24;44.68;101238.09;5093869;28;20048;-63
2023/10/02 07:22:51;;;;;;;7.05;2.83;;;;;;;21.25;44.56;101237.09;5093105;28;20435;-63
2023/10/02 07:25:24;;;;;;;5.25;2.72;;;;;;;21.25;44.55;101229.81;5094125;28;20052;-63
2023/10/02 07:27:52;;;;;;;6.50;2.85;;;;;;;21.26;44.53;101238.81;5094000;28;20048;-63
2023/10/02 07:30:26;;;;;;;5.75;2.95;;;;;;;21.26;44.48;101241.53;5093656;28;20488;-64
2023/10/02 07:33:02;;;;;;;4.60;2.42;;;;;;;21.25;44.67;101239.81;5094075;28;20494;-63
2023/10/02 07:35:34;;;;;;;4.97;2.67;;;;;;;21.27;44.77;101243.28;5093967;28;20052;-63
2023/10/02 07:38:08;;;;;;;5.75;2.78;;;;;;;21.26;44.75;101239.72;5094036;28;20461;-63
2023/10/02 07:40:49;;;;;;;5.05;2.67;;;;;;;21.27;44.51;101243.28;5093807;28;20044;-63
2023/10/02 07:43:19;;;;;;;5.05;2.65;;;;;;;21.27;44.83;101241.41;5093820;28;20048;-63
2023/10/02 07:46:01;;;;;;;5.43;2.80;;;;;;;21.28;44.94;101242.28;5093762;28;20048;-64
2023/10/02 07:48:33;;;;;;;4.13;2.30;;;;;;;21.28;44.91;101242.28;5093599;28;20508;-63
2023/10/02 07:51:06;;;;;;;4.82;2.70;;;;;;;21.29;44.88;101235.84;5093597;28;20458;-64
2023/10/02 07:53:39;;;;;;;6.00;2.40;;;;;;;21.27;44.89;101237.84;5093835;28;20156;-63
2023/10/02 07:56:11;;;;;;;4.88;2.55;;;;;;;21.29;45.03;101235.84;5093841;28;20044;-63
2023/10/02 07:58:41;;;;;;;4.57;2.30;;;;;;;21.29;45.02;101241.28;5093570;28;20126;-64
2023/10/02 08:01:12;;;;;;;5.18;2.53;;;;;;;21.31;44.71;101250.13;5093407;28;20097;-62
2023/10/02 08:03:49;;;;;;;5.57;2.72;;;;;;;21.30;44.95;101238.41;5093141;28;20044;-63
2023/10/02 08:06:23;;;;;;;4.80;2.65;;;;;;;21.30;45.03;101246.56;5093249;28;20130;-64
2023/10/02 08:09:35;;;;;;;5.90;2.53;;;;;;;21.31;45.19;101251.00;5092285;28;20055;-63
2023/10/02 08:11:50;;;;;;;4.93;2.45;;;;;;;21.32;44.94;101246.41;5092637;28;20055;-63
2023/10/02 08:17:08;;;;;;;;;;;;;;;21.34;44.99;101249.88;5093753;28;20078;-64
2023/10/02 08:19:37;;;;;;;5.63;2.58;;;;;;;21.34;44.96;101244.44;5093309;28;20351;-64
2023/10/02 08:22:07;;;;;;;5.82;2.60;;;;;;;21.34;44.90;101244.44;5093350;28;20405;-64
2023/10/02 08:24:37;;;;;;;5.57;2.85;;;;;;;21.34;44.93;101242.59;5092958;28;20042;-63
2023/10/02 08:27:06;;;;;;;4.47;2.33;;;;;;;21.36;45.14;101242.44;5093073;28;20097;-63
2023/10/02 08:29:35;;;;;;;4.20;2.30;;;;;;;21.37;45.29;101233.31;5093207;28;20455;-63
2023/10/02 08:32:04;;;;;;;4.85;2.17;;;;;;;21.38;44.96;101237.75;5092946;28;20056;-62
2023/10/02 08:34:33;;;;;;;4.75;2.30;;;;;;;21.38;45.21;101240.44;5092792;28;20493;-63
2023/10/02 08:37:08;;;;;;;4.95;2.13;;;;;;;21.39;45.40;101242.16;5092583;28;20447;-64
2023/10/02 08:39:40;;;;;;;4.40;2.10;;;;;;;21.39;45.33;101237.59;5092336;28;20048;-64
2023/10/02 08:42:09;;;;;;;6.95;2.60;;;;;;;21.40;45.40;101236.59;5092770;28;20040;-63
2023/10/02 08:44:40;;;;;;;3.90;2.30;;;;;;;21.40;45.07;101239.31;5092870;28;20109;-64
2023/10/02 08:47:11;;;;;;;4.68;2.15;;;;;;;21.42;44.94;101241.88;5092679;28;20048;-64
2023/10/02 08:49:41;;;;;;;4.93;2.22;;;;;;;21.44;45.18;101239.91;5092516;28;20040;-64
2023/10/02 08:52:10;;;;;;;5.30;2.22;;;;;;;21.45;45.42;101246.19;5092840;28;20082;-64
2023/10/02 08:54:41;;;;;;;4.65;2.50;;;;;;;21.45;45.44;101241.63;5092681;28;20048;-64
2023/10/02 08:57:10;;;;;;;4.50;2.20;;;;;;;21.46;45.29;101246.06;5092380;28;20469;-63
2023/10/02 08:59:42;;;;;;;4.90;2.28;;;;;;;21.48;45.19;101246.75;5092480;28;20409;-64
2023/10/02 09:02:15;;;;;;;5.22;2.53;;;;;;;21.50;45.46;101239.34;5092139;28;20477;-64
2023/10/02 09:05:09;;;;;;;5.45;2.33;;;;;;;21.50;45.29;101233.91;5092468;28;20055;-63
2023/10/02 09:08:00;;;;;;;5.32;2.65;;;;;;;21.51;45.36;101235.63;5092417;28;20048;-65
2023/10/02 09:10:35;;;;;;;4.40;2.40;;;;;;;21.53;45.46;101235.50;5092097;28;20398;-64
2023/10/02 09:13:14;;;;;;;4.57;2.22;;;;;;;21.53;45.71;101239.09;5091831;28;20052;-64
2023/10/02 09:15:46;;;;;;;4.65;2.45;;;;;;;21.56;45.29;101240.66;5092010;28;20051;-65
2023/10/02 09:18:34;;;;;;;4.67;2.37;;;;;;;21.57;45.38;101234.22;5092094;28;20044;-63
2023/10/02 09:21:14;;;;;;;5.65;2.33;;;;;;;21.58;45.56;101225.94;5091175;28;20052;-63
2023/10/02 09:23:51;;;;;;;3.40;2.10;;;;;;;21.60;45.46;101221.22;5091912;28;20059;-63
2023/10/02 09:26:24;;;;;;;3.60;2.05;;;;;;;21.62;45.39;101218.38;5091938;28;20048;-63
2023/10/02 09:29:00;;;;;;;4.20;2.20;;;;;;;21.64;45.33;101222.66;5091714;28;20048;-64
2023/10/02 09:31:34;;;;;;;4.85;2.25;;;;;;;21.65;45.37;101221.66;5091962;28;20604;-64
2023/10/02 09:34:10;;;;;;;4.47;2.13;;;;;;;21.67;45.66;101216.09;5091934;28;20079;-64
2023/10/02 09:37:11;;;;;;;6.07;2.40;;;;;;;21.69;45.47;101220.38;5091778;28;20139;-63
2023/10/02 09:40:03;;;;;;;4.55;2.20;;;;;;;21.70;45.46;101224.81;5091553;28;20135;-62
2023/10/02 09:42:37;;;;;;;5.57;2.40;;;;;;;21.75;45.46;101220.81;5091819;28;20052;-64
2023/10/02 09:45:09;;;;;;;4.05;2.10;;;;;;;21.77;45.57;101224.25;5091574;28;20063;-64
2023/10/02 09:47:38;;;;;;;4.00;2.25;;;;;;;21.80;45.84;101222.09;5091663;28;20112;-64
2023/10/02 09:50:29;;;;;;;4.35;2.20;;;;;;;21.82;45.58;101228.28;5091537;28;20048;-64
2023/10/02 09:53:08;;;;;;;4.70;2.40;;;;;;;21.85;45.71;101222.53;5091692;28;20496;-64
2023/10/02 09:55:51;;;;;;;4.20;2.38;;;;;;;21.87;45.59;101220.53;5091918;28;20224;-64
2023/10/02 09:58:29;;;;;;;5.38;2.30;;;;;;;21.92;45.84;101217.41;5091749;28;20051;-64
2023/10/02 10:01:33;;;;;;;3.88;1.95;;;;;;;21.94;45.61;101221.69;5091742;28;20141;-64
2023/10/02 10:04:30;;;;;;;3.83;2.15;;;;;;;21.98;45.53;101216.81;5091463;28;20135;-64
2023/10/02 10:07:09;;;;;;;4.00;2.17;;;;;;;22.01;45.78;101205.69;5091235;28;20078;-64
2023/10/02 10:09:53;;;;;;;5.57;2.42;;;;;;;22.05;45.75;101207.13;5091725;28;20191;-64
2023/10/02 10:15:29;;;;;;;4.22;2.13;;;;;;;22.14;45.57;101203.56;5091144;28;20051;-63
2023/10/02 10:17:58;;;;;;;4.53;2.15;;;;;;;22.19;45.75;101203.97;5091210;28;20048;-63
2023/10/02 10:20:27;;;;;;;3.83;1.90;;;;;;;22.22;45.90;101195.56;5091449;28;20052;-64
2023/10/02 10:22:57;;;;;;;4.32;2.33;;;;;;;22.26;45.84;101199.69;5091390;28;20067;-63
2023/10/02 10:25:45;;;;;;;5.00;2.35;;;;;;;22.32;45.67;101197.41;5091229;28;20047;-63
2023/10/02 10:28:28;;;;;;;4.43;2.30;;;;;;;22.36;45.64;101193.38;5091507;28;20048;-63
2023/10/02 10:31:02;;;;;;;4.20;2.20;;;;;;;22.40;45.39;101201.13;5091378;28;20044;-64
2023/10/02 10:33:35;;;;;;;4.05;2.38;;;;;;;22.46;45.34;101196.94;5095078;28;20097;-63
2023/10/02 10:36:25;;;;;;;5.22;2.47;;;;;;;22.51;45.49;101192.78;5095191;28;20048;-64
2023/10/02 10:38:54;;;;;;;5.07;2.20;;;;;;;22.57;45.34;101186.75;5094965;28;20048;-64
2023/10/02 10:41:31;;;;;;;4.55;2.03;;;;;;;22.62;45.41;101185.47;5095246;28;20409;-64
2023/10/02 10:44:06;;;;;;;3.80;2.00;;;;;;;22.68;45.42;101188.47;5095188;28;20447;-64
2023/10/02 10:46:39;;;;;;;4.65;2.17;;;;;;;22.75;45.38;101184.13;5094888;28;20048;-64
2023/10/02 10:49:16;;;;;;;3.25;1.98;;;;;;;22.79;45.08;101181.97;5095336;28;20131;-64
2023/10/02 10:51:52;;;;;;;5.40;2.30;;;;;;;22.85;45.37;101178.66;5094938;28;20044;-64
2023/10/02 10:54:25;;;;;;;5.03;2.10;;;;;;;22.90;45.11;101175.53;5094879;28;20091;-65
2023/10/02 10:57:22;;;;;;;5.15;2.17;;;;;;;22.95;45.06;101165.88;5094762;28;20051;-64
2023/10/02 11:00:23;;;;;;;4.22;1.95;;;;;;;23.02;45.01;101168.88;5094874;28;20052;-63
2023/10/02 11:03:01;;;;;;;5.60;2.30;;;;;;;23.08;44.92;101162.84;5094389;28;20044;-64
2023/10/02 11:05:34;;;;;;;5.22;2.30;;;;;;;23.12;44.85;101154.19;5094583;28;20565;-64
2023/10/02 11:08:23;;;;;;;4.20;2.20;;;;;;;23.15;45.10;101144.88;5094805;28;20049;-65
2023/10/02 11:11:06;;;;;;;5.03;2.35;;;;;;;23.24;44.75;101151.28;5094355;28;20475;-65
2023/10/02 11:13:51;;;;;;;3.58;2.00;;;;;;;23.29;44.75;101143.50;5094351;28;20052;-64
2023/10/02 11:16:30;;;;;;;4.35;2.20;;;;;;;23.33;44.69;101140.31;5094556;28;20101;-64
2023/10/02 11:19:34;;;;;;;3.70;2.00;;;;;;;23.41;44.73;101142.28;5094486;28;20044;-64
2023/10/02 11:22:14;;;;;;;3.70;2.13;;;;;;;23.47;44.67;101140.81;5094144;28;20109;-64
2023/10/02 11:24:44;;;;;;;4.55;2.20;;;;;;;23.52;44.59;101138.47;5094202;28;20138;-64
2023/10/02 11:27:15;;;;;;;4.45;2.20;;;;;;;23.55;44.66;101136.31;5094295;28;20048;-64
2023/10/02 11:29:45;;;;;;;3.97;2.30;;;;;;;23.62;44.56;101133.84;5094193;28;20067;-64
2023/10/02 11:32:19;;;;;;;4.18;2.03;;;;;;;23.67;44.63;101136.97;5093771;28;20101;-64
2023/10/02 11:34:51;;;;;;;5.18;2.30;;;;;;;23.72;44.46;101128.31;5093830;28;20047;-64
2023/10/02 11:37:23;;;;;;;4.95;2.30;;;;;;;23.77;44.39;101132.28;5094019;28;20135;-64
2023/10/02 11:39:51;;;;;;;3.83;2.03;;;;;;;23.82;44.42;101129.94;5094127;28;20044;-64
2023/10/02 11:42:20;;;;;;;3.78;1.80;;;;;;;23.87;44.25;101129.50;5093597;28;20048;-64
2023/10/02 11:44:48;;;;;;;4.38;2.08;;;;;;;23.92;44.40;101122.53;5093851;28;20450;-65
2023/10/02 11:47:17;;;;;;;4.65;2.10;;;;;;;23.97;44.21;101125.66;5093682;28;20056;-64
2023/10/02 11:49:45;;;;;;;4.50;2.13;;;;;;;24.02;44.18;101119.72;5093805;28;20047;-64
2023/10/02 11:52:15;;;;;;;4.63;1.92;;;;;;;24.09;44.12;101119.94;5093792;28;20047;-64
2023/10/02 11:54:43;;;;;;;3.90;2.17;;;;;;;24.13;43.98;101115.91;5093836;28;20044;-64
2023/10/02 11:57:12;;;;;;;4.45;2.22;;;;;;;24.17;44.14;101109.09;5093671;28;20507;-64
2023/10/02 11:59:42;;;;;;;3.67;2.00;;;;;;;24.21;43.94;101102.31;5093618;28;20135;-64
2023/10/02 12:02:12;;;;;;;4.80;2.17;;;;;;;24.25;43.82;101099.13;5093618;28;20074;-66
2023/10/02 12:04:40;;;;;;;4.32;2.30;;;;;;;24.31;43.84;101103.09;5093780;28;20101;-63
2023/10/02 12:07:08;;;;;;;3.60;2.10;;;;;;;24.34;43.88;101097.34;5093253;28;20044;-65
2023/10/02 12:09:38;;;;;;;4.47;2.17;;;;;;;24.40;43.70;101096.66;5093656;28;20040;-64
2023/10/02 12:12:06;;;;;;;3.75;2.13;;;;;;;24.43;43.77;101096.38;5093284;28;20052;-63
2023/10/02 12:14:35;;;;;;;4.25;2.20;;;;;;;24.48;43.69;101094.00;5093145;28;20055;-65
2023/10/02 12:17:03;;;;;;;3.55;2.10;;;;;;;24.52;43.87;101092.66;5093156;28;20105;-65
2023/10/02 12:19:36;;;;;;;3.60;1.85;;;;;;;24.58;43.95;101090.28;5093364;28;20045;-65
2023/10/02 12:22:05;;;;;;;4.20;2.10;;;;;;;24.61;43.65;101084.50;5093238;28;20044;-65
2023/10/02 12:24:38;;;;;;;5.15;2.47;;;;;;;24.65;43.89;101085.91;5093133;28;20050;-64